createdAt,value
2023-04-26T00:00:30.374Z,0.5360
2023-04-26T00:01:33.345Z,0.5406
2023-04-26T00:02:36.376Z,0.5449
2023-04-26T00:03:39.298Z,0.5300
2023-04-26T00:04:42.249Z,0.5334
2023-04-26T00:05:45.132Z,0.5556
2023-04-26T00:06:48.130Z,0.5509
2023-04-26T00:07:50.936Z,0.5288
2023-04-26T00:08:54.238Z,0.5321
2023-04-26T00:09:56.868Z,0.5215
2023-04-26T00:10:59.799Z,0.5214
2023-04-26T00:12:02.794Z,0.5254
2023-04-26T00:13:05.747Z,0.5191
2023-04-26T00:14:08.711Z,0.5149
2023-04-26T00:15:11.644Z,0.5242
2023-04-26T00:16:14.576Z,0.5346
2023-04-26T00:17:17.520Z,0.5288
2023-04-26T00:18:20.478Z,0.5164
2023-04-26T00:19:23.413Z,0.5133
2023-04-26T00:20:26.420Z,0.5181
2023-04-26T00:21:29.366Z,0.5243
2023-04-26T00:22:32.283Z,0.5030
2023-04-26T00:23:35.219Z,0.4991
2023-04-26T00:24:38.176Z,0.4972
2023-04-26T00:25:41.152Z,0.4877
2023-04-26T00:26:44.068Z,0.4907
2023-04-26T00:27:47.026Z,0.5077
2023-04-26T00:28:50.264Z,0.5201
2023-04-26T00:29:52.915Z,0.5248
2023-04-26T00:30:55.891Z,0.5211
2023-04-26T00:31:58.947Z,0.5180
2023-04-26T00:33:01.800Z,0.5148
2023-04-26T00:34:04.718Z,0.5082
2023-04-26T00:35:07.706Z,0.5199
2023-04-26T00:36:10.617Z,0.5161
2023-04-26T00:37:13.576Z,0.5051
2023-04-26T00:38:16.517Z,0.5267
2023-04-26T00:39:19.465Z,0.5376
2023-04-26T00:40:22.451Z,0.5317
2023-04-26T00:41:25.374Z,0.5018
2023-04-26T00:42:28.390Z,0.5041
2023-04-26T00:43:31.260Z,0.4949
2023-04-26T00:44:34.219Z,0.5084
2023-04-26T00:45:37.235Z,0.5153
2023-04-26T00:46:40.111Z,0.5104
2023-04-26T00:47:43.082Z,0.5086
2023-04-26T00:48:46.009Z,0.5055
2023-04-26T00:49:48.983Z,0.4968
2023-04-26T00:50:51.946Z,0.4958
2023-04-26T00:51:54.913Z,0.5030
2023-04-26T00:52:57.817Z,0.5126
2023-04-26T00:54:00.764Z,0.5124
2023-04-26T00:55:03.755Z,0.5161
2023-04-26T00:56:06.837Z,0.5390
2023-04-26T00:57:09.641Z,0.5346
2023-04-26T00:58:12.664Z,0.5411
2023-04-26T00:59:15.530Z,0.5506
2023-04-26T01:00:18.493Z,0.5435
2023-04-26T01:01:21.637Z,0.5243
2023-04-26T01:02:24.444Z,0.4939
2023-04-26T01:03:27.495Z,0.4873
2023-04-26T01:04:30.408Z,0.4874
2023-04-26T01:05:33.275Z,0.5041
2023-04-26T01:06:36.202Z,0.4947
2023-04-26T01:07:39.149Z,0.5024
2023-04-26T01:08:42.075Z,0.5102
2023-04-26T01:09:45.018Z,0.5010
2023-04-26T01:10:48.008Z,0.4993
2023-04-26T01:11:50.921Z,0.4976
2023-04-26T01:12:53.885Z,0.4974
2023-04-26T01:13:56.822Z,0.4967
2023-04-26T01:14:59.787Z,0.5042
2023-04-26T01:16:02.849Z,0.5114
2023-04-26T01:17:05.786Z,0.5027
2023-04-26T01:18:08.635Z,0.5059
2023-04-26T01:19:11.571Z,0.5023
2023-04-26T01:20:14.520Z,0.5182
2023-04-26T01:21:17.479Z,0.5428
2023-04-26T01:22:20.430Z,0.5396
2023-04-26T01:23:23.469Z,0.5440
2023-04-26T01:24:26.376Z,0.5437
2023-04-26T01:25:29.287Z,0.5415
2023-04-26T01:26:32.240Z,0.5298
2023-04-26T01:27:35.191Z,0.5238
2023-04-26T01:28:38.224Z,0.5382
2023-04-26T01:29:41.128Z,0.5615
2023-04-26T01:30:44.078Z,0.5690
2023-04-26T01:31:47.021Z,0.5746
2023-04-26T01:32:49.997Z,0.5610
2023-04-26T01:33:52.980Z,0.5383
2023-04-26T01:34:55.868Z,0.5388
2023-04-26T01:35:58.799Z,0.5689
2023-04-26T01:37:01.754Z,0.5523
2023-04-26T01:38:04.736Z,0.5357
2023-04-26T01:39:07.657Z,0.5153
2023-04-26T01:40:10.629Z,0.5038
2023-04-26T01:41:13.566Z,0.5180
2023-04-26T01:42:16.515Z,0.5188
2023-04-26T01:43:19.484Z,0.5144
2023-04-26T01:44:22.432Z,0.5080
2023-04-26T01:45:25.415Z,0.5111
2023-04-26T01:46:28.358Z,0.5272
2023-04-26T01:47:31.456Z,0.5389
2023-04-26T01:48:34.338Z,0.5238
2023-04-26T01:49:37.321Z,0.4994
2023-04-26T01:50:40.216Z,0.4996
2023-04-26T01:51:43.177Z,0.4988
2023-04-26T01:52:46.121Z,0.4939
2023-04-26T01:53:49.078Z,0.5013
2023-04-26T01:54:52.024Z,0.5166
2023-04-26T01:55:54.968Z,0.5283
2023-04-26T01:56:57.923Z,0.5322
2023-04-26T01:58:00.866Z,0.5298
2023-04-26T01:59:03.827Z,0.5319
2023-04-26T02:00:06.779Z,0.5223
2023-04-26T02:01:09.792Z,0.5370
2023-04-26T02:02:12.748Z,0.5351
2023-04-26T02:03:15.744Z,0.5171
2023-04-26T02:04:18.574Z,0.5165
2023-04-26T02:05:21.618Z,0.5030
2023-04-26T02:06:24.504Z,0.5001
2023-04-26T02:07:27.474Z,0.5035
2023-04-26T02:08:30.422Z,0.4994
2023-04-26T02:09:33.354Z,0.5047
2023-04-26T02:10:36.364Z,0.4884
2023-04-26T02:11:39.266Z,0.4922
2023-04-26T02:12:42.229Z,0.5028
2023-04-26T02:13:45.162Z,0.5076
2023-04-26T02:14:48.129Z,0.5194
2023-04-26T02:15:51.097Z,0.5239
2023-04-26T02:16:54.076Z,0.5177
2023-04-26T02:17:57.064Z,0.5139
2023-04-26T02:18:59.931Z,0.5049
2023-04-26T02:20:02.904Z,0.5002
2023-04-26T02:21:05.845Z,0.5007
2023-04-26T02:22:08.810Z,0.5107
2023-04-26T02:23:11.753Z,0.5149
2023-04-26T02:24:14.718Z,0.5196
2023-04-26T02:25:17.716Z,0.5299
2023-04-26T02:26:20.646Z,0.5281
2023-04-26T02:27:23.592Z,0.5113
2023-04-26T02:28:26.564Z,0.5215
2023-04-26T02:29:42.250Z,0.5075
2023-04-26T02:30:32.431Z,0.4965
2023-04-26T02:31:35.444Z,0.5164
2023-04-26T02:32:38.397Z,0.5303
2023-04-26T02:33:41.372Z,0.5296
2023-04-26T02:34:44.256Z,0.5121
2023-04-26T02:35:47.199Z,0.5075
2023-04-26T02:36:50.179Z,0.4899
2023-04-26T02:37:53.093Z,0.4885
2023-04-26T02:38:56.077Z,0.4823
2023-04-26T02:39:59.006Z,0.4899
2023-04-26T02:41:02.034Z,0.5093
2023-04-26T02:42:05.113Z,0.5111
2023-04-26T02:43:07.854Z,0.5196
2023-04-26T02:44:10.826Z,0.5190
2023-04-26T02:45:13.784Z,0.5214
2023-04-26T02:46:17.394Z,0.5125
2023-04-26T02:47:19.657Z,0.5039
2023-04-26T02:48:22.622Z,0.4990
2023-04-26T02:49:25.599Z,0.4994
2023-04-26T02:50:28.582Z,0.5023
2023-04-26T02:51:31.461Z,0.5089
2023-04-26T02:52:34.446Z,0.5033
2023-04-26T02:53:37.378Z,0.4988
2023-04-26T02:54:40.410Z,0.4968
2023-04-26T02:55:43.284Z,0.4985
2023-04-26T02:56:46.236Z,0.5185
2023-04-26T02:57:49.184Z,0.5388
2023-04-26T02:58:52.368Z,0.5338
2023-04-26T02:59:55.095Z,0.5288
2023-04-26T03:02:01.029Z,0.5120
2023-04-26T03:03:04.047Z,0.5303
2023-04-26T03:04:07.079Z,0.5437
2023-04-26T03:05:09.900Z,0.5359
2023-04-26T03:06:12.799Z,0.5360
2023-04-26T03:07:15.781Z,0.5398
2023-04-26T03:08:18.682Z,0.5276
2023-04-26T03:09:21.645Z,0.5380
2023-04-26T03:10:24.593Z,0.5369
2023-04-26T03:11:27.573Z,0.5245
2023-04-26T03:12:30.484Z,0.5160
2023-04-26T03:13:33.498Z,0.5209
2023-04-26T03:14:36.395Z,0.5259
2023-04-26T03:15:39.359Z,0.5218
2023-04-26T03:16:42.402Z,0.5174
2023-04-26T03:17:45.269Z,0.5088
2023-04-26T03:18:48.218Z,0.5106
2023-04-26T03:19:51.144Z,0.5027
2023-04-26T03:20:54.116Z,0.5043
2023-04-26T03:21:57.049Z,0.5112
2023-04-26T03:23:00.011Z,0.5081
2023-04-26T03:24:02.963Z,0.5263
2023-04-26T03:25:05.981Z,0.5184
2023-04-26T03:26:08.848Z,0.5080
2023-04-26T03:27:11.812Z,0.5116
2023-04-26T03:28:14.814Z,0.5083
2023-04-26T03:29:17.690Z,0.5068
2023-04-26T03:30:20.645Z,0.5172
2023-04-26T03:31:23.706Z,0.5208
2023-04-26T03:32:26.576Z,0.5264
2023-04-26T03:33:29.505Z,0.5266
2023-04-26T03:34:32.444Z,0.5159
2023-04-26T03:35:35.393Z,0.5234
2023-04-26T03:36:38.408Z,0.5226
2023-04-26T03:37:41.293Z,0.5299
2023-04-26T03:38:44.285Z,0.5287
2023-04-26T03:39:47.203Z,0.5310
2023-04-26T03:40:50.168Z,0.5305
2023-04-26T03:41:53.123Z,0.5213
2023-04-26T03:42:56.087Z,0.5161
2023-04-26T03:43:59.005Z,0.5167
2023-04-26T03:45:01.962Z,0.5173
2023-04-26T03:46:05.014Z,0.5037
2023-04-26T03:47:07.880Z,0.5112
2023-04-26T03:48:10.874Z,0.5414
2023-04-26T03:49:13.792Z,0.5577
2023-04-26T03:50:16.723Z,0.5282
2023-04-26T03:51:19.685Z,0.5090
2023-04-26T03:52:22.623Z,0.5030
2023-04-26T03:53:25.589Z,0.4998
2023-04-26T03:54:28.538Z,0.5110
2023-04-26T03:55:31.501Z,0.5109
2023-04-26T03:56:34.472Z,0.5136
2023-04-26T03:57:37.396Z,0.5106
2023-04-26T03:58:40.395Z,0.5342
2023-04-26T03:59:43.304Z,0.6001
2023-04-26T04:00:46.243Z,0.5653
2023-04-26T04:01:49.204Z,0.5694
2023-04-26T04:02:52.289Z,0.5655
2023-04-26T04:03:55.463Z,0.5378
2023-04-26T04:04:58.222Z,0.5337
2023-04-26T04:06:01.210Z,0.5274
2023-04-26T04:07:03.973Z,0.5136
2023-04-26T04:08:07.157Z,0.4968
2023-04-26T04:09:09.918Z,0.5021
2023-04-26T04:10:12.855Z,0.4925
2023-04-26T04:11:16.904Z,0.5050
2023-04-26T04:12:18.854Z,0.4933
2023-04-26T04:13:21.710Z,0.5040
2023-04-26T04:14:24.692Z,0.5007
2023-04-26T04:15:27.682Z,0.5127
2023-04-26T04:16:30.672Z,0.5068
2023-04-26T04:17:33.563Z,0.5198
2023-04-26T04:18:36.627Z,0.5300
2023-04-26T04:19:39.458Z,0.5269
2023-04-26T04:20:42.400Z,0.5283
2023-04-26T04:21:45.376Z,0.5292
2023-04-26T04:22:48.301Z,0.5363
2023-04-26T04:23:51.253Z,0.5206
2023-04-26T04:24:54.243Z,0.5218
2023-04-26T04:25:57.169Z,0.5229
2023-04-26T04:27:00.126Z,0.5324
2023-04-26T04:28:03.147Z,0.5086
2023-04-26T04:29:05.989Z,0.5108
2023-04-26T04:30:08.995Z,0.4943
2023-04-26T04:31:11.975Z,0.4911
2023-04-26T04:32:14.973Z,0.5072
2023-04-26T04:33:17.890Z,0.5143
2023-04-26T04:34:20.738Z,0.5266
2023-04-26T04:35:23.709Z,0.5225
2023-04-26T04:36:26.641Z,0.5132
2023-04-26T04:37:29.640Z,0.5128
2023-04-26T04:38:32.555Z,0.5075
2023-04-26T04:39:35.502Z,0.5182
2023-04-26T04:40:38.438Z,0.5175
2023-04-26T04:41:41.425Z,0.5146
2023-04-26T04:42:44.355Z,0.5211
2023-04-26T04:43:47.343Z,0.5337
2023-04-26T04:44:50.246Z,0.5316
2023-04-26T04:45:53.362Z,0.5288
2023-04-26T04:46:56.205Z,0.5418
2023-04-26T04:47:59.146Z,0.5432
2023-04-26T04:49:02.065Z,0.5440
2023-04-26T04:50:05.027Z,0.5522
2023-04-26T04:51:07.986Z,0.5594
2023-04-26T04:52:10.923Z,0.5560
2023-04-26T04:53:13.866Z,0.5529
2023-04-26T04:54:16.883Z,0.5430
2023-04-26T04:55:19.788Z,0.5559
2023-04-26T04:56:22.737Z,0.5526
2023-04-26T04:57:25.662Z,0.5447
2023-04-26T04:58:28.620Z,0.5366
2023-04-26T04:59:31.587Z,0.5121
2023-04-26T05:00:34.611Z,0.5164
2023-04-26T05:01:37.543Z,0.5322
2023-04-26T05:02:40.658Z,0.5367
2023-04-26T05:03:43.630Z,0.5529
2023-04-26T05:04:46.459Z,0.5648
2023-04-26T05:05:49.320Z,0.5571
2023-04-26T05:06:52.231Z,0.5546
2023-04-26T05:07:55.228Z,0.5425
2023-04-26T05:08:58.186Z,0.5316
2023-04-26T05:10:01.149Z,0.5371
2023-04-26T05:11:04.083Z,0.5361
2023-04-26T05:12:07.069Z,0.5224
2023-04-26T05:13:09.972Z,0.5183
2023-04-26T05:14:12.943Z,0.5148
2023-04-26T05:15:16.012Z,0.5173
2023-04-26T05:16:18.877Z,0.5375
2023-04-26T05:17:21.805Z,0.5177
2023-04-26T05:18:24.741Z,0.5139
2023-04-26T05:19:27.719Z,0.5204
2023-04-26T05:20:30.654Z,0.5462
2023-04-26T05:21:33.610Z,0.5570
2023-04-26T05:22:36.586Z,0.5418
2023-04-26T05:23:39.542Z,0.5218
2023-04-26T05:24:42.476Z,0.4989
2023-04-26T05:25:45.477Z,0.5062
2023-04-26T05:26:48.376Z,0.5171
2023-04-26T05:27:51.383Z,0.5050
2023-04-26T05:28:54.401Z,0.5058
2023-04-26T05:29:57.251Z,0.5310
2023-04-26T05:31:00.214Z,0.5302
2023-04-26T05:32:03.230Z,0.5217
2023-04-26T05:33:06.198Z,0.5121
2023-04-26T05:34:09.067Z,0.4998
2023-04-26T05:35:12.008Z,0.5089
2023-04-26T05:36:14.962Z,0.5028
2023-04-26T05:37:17.918Z,0.5040
2023-04-26T05:38:20.844Z,0.5227
2023-04-26T05:39:23.805Z,0.5323
2023-04-26T05:40:26.779Z,0.5208
2023-04-26T05:41:29.718Z,0.5296
2023-04-26T05:42:32.718Z,0.5354
2023-04-26T05:43:35.642Z,0.5406
2023-04-26T05:44:38.593Z,0.5288
2023-04-26T05:45:41.583Z,0.5351
2023-04-26T05:46:44.522Z,0.5357
2023-04-26T05:47:47.503Z,0.5319
2023-04-26T05:48:50.403Z,0.5464
2023-04-26T05:49:53.517Z,0.5321
2023-04-26T05:50:56.327Z,0.5247
2023-04-26T05:51:59.302Z,0.5229
2023-04-26T05:53:02.268Z,0.5166
2023-04-26T05:54:05.199Z,0.5060
2023-04-26T05:55:08.164Z,0.5276
2023-04-26T05:56:11.179Z,0.5345
2023-04-26T05:57:14.136Z,0.5476
2023-04-26T05:58:17.105Z,0.5485
2023-04-26T05:59:20.071Z,0.5428
2023-04-26T06:00:22.978Z,0.5308
2023-04-26T06:01:26.025Z,0.5189
2023-04-26T06:02:28.992Z,0.5307
2023-04-26T06:03:32.082Z,0.5364
2023-04-26T06:04:34.943Z,0.5215
2023-04-26T06:05:37.735Z,0.5138
2023-04-26T06:06:40.716Z,0.5273
2023-04-26T06:07:43.637Z,0.5447
2023-04-26T06:08:46.657Z,0.5560
2023-04-26T06:09:49.572Z,0.5592
2023-04-26T06:10:52.505Z,0.5612
2023-04-26T06:11:56.274Z,0.5507
2023-04-26T06:12:58.422Z,0.5458
2023-04-26T06:14:01.364Z,0.5575
2023-04-26T06:15:04.320Z,0.5767
2023-04-26T06:16:07.267Z,0.5823
2023-04-26T06:17:10.263Z,0.5820
2023-04-26T06:18:13.151Z,0.5896
2023-04-26T06:19:16.088Z,0.5920
2023-04-26T06:20:19.076Z,0.5623
2023-04-26T06:21:22.016Z,0.5583
2023-04-26T06:22:24.922Z,0.5668
2023-04-26T06:23:27.971Z,0.5636
2023-04-26T06:24:30.871Z,0.5522
2023-04-26T06:25:33.804Z,0.5432
2023-04-26T06:26:36.728Z,0.5580
2023-04-26T06:27:39.681Z,0.5501
2023-04-26T06:28:42.626Z,0.5494
2023-04-26T06:29:45.590Z,0.5426
2023-04-26T06:30:48.639Z,0.5693
2023-04-26T06:31:51.475Z,0.5621
2023-04-26T06:32:54.513Z,0.5231
2023-04-26T06:33:57.437Z,0.5288
2023-04-26T06:35:00.366Z,0.5361
2023-04-26T06:36:03.320Z,0.5449
2023-04-26T06:37:06.340Z,0.5349
2023-04-26T06:38:09.201Z,0.5213
2023-04-26T06:39:12.120Z,0.5190
2023-04-26T06:40:15.135Z,0.5202
2023-04-26T06:41:18.017Z,0.5432
2023-04-26T06:42:20.985Z,0.5490
2023-04-26T06:43:23.899Z,0.5429
2023-04-26T06:44:26.870Z,0.5414
2023-04-26T06:45:29.821Z,0.5277
2023-04-26T06:46:32.835Z,0.5588
2023-04-26T06:47:35.793Z,0.5639
2023-04-26T06:48:38.659Z,0.5614
2023-04-26T06:49:41.629Z,0.5357
2023-04-26T06:50:44.591Z,0.5237
2023-04-26T06:51:47.522Z,0.5134
2023-04-26T06:52:50.533Z,0.5080
2023-04-26T06:53:53.686Z,0.5328
2023-04-26T06:54:57.729Z,0.5277
2023-04-26T06:55:59.289Z,0.5428
2023-04-26T06:57:02.370Z,0.5421
2023-04-26T06:58:05.184Z,0.5146
2023-04-26T06:59:08.151Z,0.5036
2023-04-26T07:00:11.107Z,0.5030
2023-04-26T07:01:14.080Z,0.5157
2023-04-26T07:02:17.043Z,0.5170
2023-04-26T07:03:20.370Z,0.5192
2023-04-26T07:04:23.271Z,0.5181
2023-04-26T07:05:26.033Z,0.5294
2023-04-26T07:06:28.740Z,0.5134
2023-04-26T07:07:31.700Z,0.5148
2023-04-26T07:08:34.763Z,0.5431
2023-04-26T07:09:37.624Z,0.5311
2023-04-26T07:10:40.544Z,0.5215
2023-04-26T07:11:43.488Z,0.5281
2023-04-26T07:12:46.595Z,0.5253
2023-04-26T07:13:49.415Z,0.5218
2023-04-26T07:14:52.363Z,0.5252
2023-04-26T07:15:55.346Z,0.5367
2023-04-26T07:16:58.260Z,0.5429
2023-04-26T07:18:01.199Z,0.5250
2023-04-26T07:19:04.108Z,0.5376
2023-04-26T07:20:07.083Z,0.5237
2023-04-26T07:21:10.045Z,0.5223
2023-04-26T07:22:13.362Z,0.5370
2023-04-26T07:23:15.897Z,0.5296
2023-04-26T07:24:18.867Z,0.5245
2023-04-26T07:25:21.790Z,0.5283
2023-04-26T07:26:24.753Z,0.4969
2023-04-26T07:27:27.688Z,0.4994
2023-04-26T07:28:30.750Z,0.5095
2023-04-26T07:29:33.598Z,0.5251
2023-04-26T07:30:36.543Z,0.5325
2023-04-26T07:31:39.497Z,0.5321
2023-04-26T07:32:42.501Z,0.5276
2023-04-26T07:33:45.586Z,0.5202
2023-04-26T07:34:48.357Z,0.5191
2023-04-26T07:35:51.247Z,0.5222
2023-04-26T07:36:54.201Z,0.5423
2023-04-26T07:37:57.152Z,0.5318
2023-04-26T07:39:00.128Z,0.5223
2023-04-26T07:40:03.110Z,0.5235
2023-04-26T07:41:05.992Z,0.5139
2023-04-26T07:42:08.918Z,0.5014
2023-04-26T07:43:11.903Z,0.5002
2023-04-26T07:44:14.838Z,0.4982
2023-04-26T07:45:17.750Z,0.4955
2023-04-26T07:46:20.737Z,0.5029
2023-04-26T07:47:23.664Z,0.5098
2023-04-26T07:48:26.582Z,0.5135
2023-04-26T07:49:29.541Z,0.5065
2023-04-26T07:50:32.479Z,0.4920
2023-04-26T07:51:35.415Z,0.4988
2023-04-26T07:52:38.361Z,0.5020
2023-04-26T07:53:41.301Z,0.5072
2023-04-26T07:54:44.291Z,0.5119
2023-04-26T07:55:47.944Z,0.5133
2023-04-26T07:56:50.126Z,0.5280
2023-04-26T07:57:53.138Z,0.5180
2023-04-26T07:58:56.023Z,0.4968
2023-04-26T07:59:58.953Z,0.4886
2023-04-26T08:01:01.909Z,0.5003
2023-04-26T08:02:04.878Z,0.5084
2023-04-26T08:03:07.998Z,0.4984
2023-04-26T08:04:11.124Z,0.4994
2023-04-26T08:05:13.955Z,0.5110
2023-04-26T08:06:16.710Z,0.5133
2023-04-26T08:07:19.550Z,0.4943
2023-04-26T08:08:22.571Z,0.4952
2023-04-26T08:09:25.455Z,0.4971
2023-04-26T08:10:28.556Z,0.5067
2023-04-26T08:11:31.397Z,0.5141
2023-04-26T08:12:34.278Z,0.5044
2023-04-26T08:13:37.272Z,0.5099
2023-04-26T08:14:40.155Z,0.4981
2023-04-26T08:15:43.114Z,0.5042
2023-04-26T08:16:46.141Z,0.5169
2023-04-26T08:17:49.012Z,0.5091
2023-04-26T08:18:51.977Z,0.5100
2023-04-26T08:19:54.866Z,0.5089
2023-04-26T08:20:57.813Z,0.4890
2023-04-26T08:22:00.792Z,0.4948
2023-04-26T08:23:03.706Z,0.4915
2023-04-26T08:24:06.646Z,0.4988
2023-04-26T08:25:09.617Z,0.5108
2023-04-26T08:26:12.560Z,0.5080
2023-04-26T08:27:15.582Z,0.4986
2023-04-26T08:28:18.451Z,0.4954
2023-04-26T08:29:21.395Z,0.5099
2023-04-26T08:30:24.356Z,0.5227
2023-04-26T08:31:27.316Z,0.5067
2023-04-26T08:32:30.249Z,0.5071
2023-04-26T08:33:33.157Z,0.4795
2023-04-26T08:34:36.099Z,0.4774
2023-04-26T08:35:39.089Z,0.4927
2023-04-26T08:36:41.993Z,0.4961
2023-04-26T08:37:44.923Z,0.5093
2023-04-26T08:38:47.895Z,0.5345
2023-04-26T08:39:50.799Z,0.5284
2023-04-26T08:40:53.791Z,0.5161
2023-04-26T08:41:56.706Z,0.5035
2023-04-26T08:42:59.729Z,0.5053
2023-04-26T08:44:02.775Z,0.4960
2023-04-26T08:45:05.626Z,0.4934
2023-04-26T08:46:08.515Z,0.5015
2023-04-26T08:47:11.452Z,0.4986
2023-04-26T08:48:14.422Z,0.5159
2023-04-26T08:49:17.337Z,0.5200
2023-04-26T08:50:20.291Z,0.5106
2023-04-26T08:51:23.416Z,0.5183
2023-04-26T08:52:26.163Z,0.5148
2023-04-26T08:53:29.122Z,0.5037
2023-04-26T08:54:32.148Z,0.5030
2023-04-26T08:55:35.051Z,0.4982
2023-04-26T08:56:37.956Z,0.5016
2023-04-26T08:57:40.947Z,0.5055
2023-04-26T08:58:43.935Z,0.5064
2023-04-26T08:59:46.805Z,0.4969
2023-04-26T09:00:49.919Z,0.5118
2023-04-26T09:01:52.751Z,0.5251
2023-04-26T09:02:55.752Z,0.5212
2023-04-26T09:03:58.881Z,0.5297
2023-04-26T09:05:01.804Z,0.5138
2023-04-26T09:06:04.614Z,0.4982
2023-04-26T09:07:07.439Z,0.5127
2023-04-26T09:08:10.396Z,0.5148
2023-04-26T09:09:13.325Z,0.5196
2023-04-26T09:10:16.260Z,0.5219
2023-04-26T09:11:19.237Z,0.5191
2023-04-26T09:12:22.157Z,0.5145
2023-04-26T09:13:25.148Z,0.5177
2023-04-26T09:14:28.081Z,0.4936
2023-04-26T09:15:30.992Z,0.4894
2023-04-26T09:16:34.089Z,0.4879
2023-04-26T09:17:37.220Z,0.4839
2023-04-26T09:18:39.837Z,0.4720
2023-04-26T09:19:42.769Z,0.4797
2023-04-26T09:20:45.728Z,0.4873
2023-04-26T09:21:48.723Z,0.4901
2023-04-26T09:22:51.644Z,0.4838
2023-04-26T09:23:54.562Z,0.4766
2023-04-26T09:24:57.557Z,0.4884
2023-04-26T09:26:00.439Z,0.5000
2023-04-26T09:27:03.403Z,0.5061
2023-04-26T09:28:06.364Z,0.5123
2023-04-26T09:29:09.294Z,0.5053
2023-04-26T09:30:12.242Z,0.5066
2023-04-26T09:31:15.237Z,0.5008
2023-04-26T09:32:18.187Z,0.4984
2023-04-26T09:33:21.134Z,0.4839
2023-04-26T09:34:24.020Z,0.4899
2023-04-26T09:35:26.967Z,0.4912
2023-04-26T09:36:29.909Z,0.4953
2023-04-26T09:37:34.386Z,0.5170
2023-04-26T09:38:35.847Z,0.5111
2023-04-26T09:39:38.768Z,0.4906
2023-04-26T09:40:41.770Z,0.4778
2023-04-26T09:41:44.680Z,0.4885
2023-04-26T09:42:47.601Z,0.5121
2023-04-26T09:43:50.733Z,0.5163
2023-04-26T09:44:53.499Z,0.5147
2023-04-26T09:45:56.453Z,0.4959
2023-04-26T09:46:59.446Z,0.4985
2023-04-26T09:48:02.376Z,0.4999
2023-04-26T09:49:05.335Z,0.4884
2023-04-26T09:50:08.285Z,0.4818
2023-04-26T09:51:11.202Z,0.4841
2023-04-26T09:52:14.144Z,0.4879
2023-04-26T09:53:17.147Z,0.5017
2023-04-26T09:54:20.053Z,0.4983
2023-04-26T09:55:34.231Z,0.5116
2023-04-26T09:56:25.961Z,0.5166
2023-04-26T09:57:28.922Z,0.5190
2023-04-26T09:58:31.836Z,0.4930
2023-04-26T09:59:34.809Z,0.4824
2023-04-26T10:00:37.751Z,0.4853
2023-04-26T10:01:40.696Z,0.4975
2023-04-26T10:02:43.732Z,0.5305
2023-04-26T10:03:46.855Z,0.5556
2023-04-26T10:04:49.678Z,0.5496
2023-04-26T10:05:52.532Z,0.5577
2023-04-26T10:06:55.520Z,0.5635
2023-04-26T10:07:58.419Z,0.5383
2023-04-26T10:09:01.366Z,0.5221
2023-04-26T10:10:04.348Z,0.5182
2023-04-26T10:11:07.268Z,0.5192
2023-04-26T10:12:10.210Z,0.5291
2023-04-26T10:13:13.302Z,0.5339
2023-04-26T10:14:16.105Z,0.5224
2023-04-26T10:15:19.095Z,0.5142
2023-04-26T10:16:22.070Z,0.5196
2023-04-26T10:17:25.018Z,0.5019
2023-04-26T10:18:27.964Z,0.5026
2023-04-26T10:19:30.869Z,0.5081
2023-04-26T10:20:33.931Z,0.5131
2023-04-26T10:21:36.754Z,0.5198
2023-04-26T10:22:39.776Z,0.5239
2023-04-26T10:23:42.648Z,0.5074
2023-04-26T10:24:45.585Z,0.5112
2023-04-26T10:25:48.553Z,0.5150
2023-04-26T10:26:51.497Z,0.5039
2023-04-26T10:27:54.436Z,0.5077
2023-04-26T10:29:02.084Z,0.5018
2023-04-26T10:30:00.327Z,0.5014
2023-04-26T10:31:03.278Z,0.5153
2023-04-26T10:32:06.346Z,0.5226
2023-04-26T10:33:09.270Z,0.5281
2023-04-26T10:34:12.227Z,0.5328
2023-04-26T10:35:15.089Z,0.5272
2023-04-26T10:36:18.076Z,0.5285
2023-04-26T10:37:21.074Z,0.5236
2023-04-26T10:38:23.962Z,0.5307
2023-04-26T10:39:26.969Z,0.5207
2023-04-26T10:40:29.876Z,0.5239
2023-04-26T10:41:32.880Z,0.5293
2023-04-26T10:42:35.793Z,0.5257
2023-04-26T10:43:38.735Z,0.5178
2023-04-26T10:44:41.694Z,0.5149
2023-04-26T10:45:44.669Z,0.5071
2023-04-26T10:46:47.605Z,0.4990
2023-04-26T10:47:50.635Z,0.5045
2023-04-26T10:48:53.866Z,0.5003
2023-04-26T10:49:56.482Z,0.4930
2023-04-26T10:50:59.473Z,0.4870
2023-04-26T10:52:02.378Z,0.4791
2023-04-26T10:53:05.411Z,0.4764
2023-04-26T10:54:08.292Z,0.4725
2023-04-26T10:55:11.435Z,0.4704
2023-04-26T10:56:14.182Z,0.4771
2023-04-26T10:57:17.151Z,0.4839
2023-04-26T10:58:20.123Z,0.4900
2023-04-26T10:59:39.688Z,0.4898
2023-04-26T11:00:26.779Z,0.4802
2023-04-26T11:01:28.985Z,0.4866
2023-04-26T11:02:31.946Z,0.4819
2023-04-26T11:03:35.191Z,0.4750
2023-04-26T11:04:37.932Z,0.4795
2023-04-26T11:05:40.799Z,0.4754
2023-04-26T11:06:43.772Z,0.4854
2023-04-26T11:07:46.728Z,0.4938
2023-04-26T11:08:49.746Z,0.4946
2023-04-26T11:09:52.756Z,0.4984
2023-04-26T11:10:55.571Z,0.4968
2023-04-26T11:11:58.513Z,0.4970
2023-04-26T11:13:01.497Z,0.4942
2023-04-26T11:14:04.452Z,0.4989
2023-04-26T11:15:07.400Z,0.5037
2023-04-26T11:16:10.413Z,0.5007
2023-04-26T11:17:13.410Z,0.4917
2023-04-26T11:18:16.254Z,0.4813
2023-04-26T11:19:19.208Z,0.4825
2023-04-26T11:20:22.208Z,0.4793
2023-04-26T11:21:25.116Z,0.4859
2023-04-26T11:22:28.064Z,0.4870
2023-04-26T11:23:31.085Z,0.4917
2023-04-26T11:24:34.060Z,0.5024
2023-04-26T11:25:36.980Z,0.4866
2023-04-26T11:26:39.877Z,0.4929
2023-04-26T11:27:42.912Z,0.4836
2023-04-26T11:28:45.819Z,0.4840
2023-04-26T11:29:48.732Z,0.4953
2023-04-26T11:30:51.726Z,0.5055
2023-04-26T11:31:54.777Z,0.4863
2023-04-26T11:32:57.646Z,0.4948
2023-04-26T11:34:00.787Z,0.5031
2023-04-26T11:35:03.507Z,0.5060
2023-04-26T11:36:06.584Z,0.5066
2023-04-26T11:37:09.451Z,0.5041
2023-04-26T11:38:12.448Z,0.4968
2023-04-26T11:39:15.351Z,0.5021
2023-04-26T11:40:18.334Z,0.5005
2023-04-26T11:41:21.454Z,0.4954
2023-04-26T11:42:24.198Z,0.4892
2023-04-26T11:43:27.206Z,0.4801
2023-04-26T11:44:30.267Z,0.4780
2023-04-26T11:45:33.076Z,0.4841
2023-04-26T11:46:36.075Z,0.4951
2023-04-26T11:47:39.019Z,0.4976
2023-04-26T11:48:42.015Z,0.5041
2023-04-26T11:49:44.910Z,0.5067
2023-04-26T11:50:47.944Z,0.5022
2023-04-26T11:51:50.822Z,0.5099
2023-04-26T11:52:53.770Z,0.5114
2023-04-26T11:53:56.838Z,0.4984
2023-04-26T11:54:59.683Z,0.4943
2023-04-26T11:56:02.700Z,0.4886
2023-04-26T11:57:05.607Z,0.4724
2023-04-26T11:58:08.559Z,0.4714
2023-04-26T11:59:11.553Z,0.4765
2023-04-26T12:00:14.486Z,0.4929
2023-04-26T12:01:17.517Z,0.5031
2023-04-26T12:02:20.492Z,0.5122
2023-04-26T12:03:23.486Z,0.5106
2023-04-26T12:04:29.689Z,0.5068
2023-04-26T12:05:29.279Z,0.5106
2023-04-26T12:06:32.327Z,0.5041
2023-04-26T12:07:35.182Z,0.5010
2023-04-26T12:08:38.194Z,0.4877
2023-04-26T12:09:41.111Z,0.4908
2023-04-26T12:10:44.045Z,0.4987
2023-04-26T12:11:46.990Z,0.4967
2023-04-26T12:12:50.069Z,0.4943
2023-04-26T12:13:52.964Z,0.5011
2023-04-26T12:14:55.888Z,0.4957
2023-04-26T12:15:59.073Z,0.5126
2023-04-26T12:17:02.159Z,0.5093
2023-04-26T12:18:04.864Z,0.5064
2023-04-26T12:19:07.756Z,0.5147
2023-04-26T12:20:10.822Z,0.5114
2023-04-26T12:21:13.750Z,0.4995
2023-04-26T12:22:16.623Z,0.5016
2023-04-26T12:23:19.703Z,0.4982
2023-04-26T12:24:22.555Z,0.5098
2023-04-26T12:25:25.579Z,0.5242
2023-04-26T12:26:28.512Z,0.5250
2023-04-26T12:27:31.421Z,0.5274
2023-04-26T12:28:34.380Z,0.5364
2023-04-26T12:29:37.346Z,0.5257
2023-04-26T12:30:40.333Z,0.5206
2023-04-26T12:31:43.282Z,0.5268
2023-04-26T12:32:46.288Z,0.5249
2023-04-26T12:33:49.158Z,0.5175
2023-04-26T12:34:52.125Z,0.5286
2023-04-26T12:35:55.183Z,0.5309
2023-04-26T12:36:58.317Z,0.5307
2023-04-26T12:38:01.022Z,0.5250
2023-04-26T12:39:03.980Z,0.5103
2023-04-26T12:40:06.926Z,0.5089
2023-04-26T12:41:09.881Z,0.5152
2023-04-26T12:42:13.053Z,0.5267
2023-04-26T12:43:15.852Z,0.5238
2023-04-26T12:44:20.578Z,0.5329
2023-04-26T12:45:21.713Z,0.5264
2023-04-26T12:46:24.683Z,0.5237
2023-04-26T12:47:27.659Z,0.5183
2023-04-26T12:48:30.607Z,0.5080
2023-04-26T12:49:33.555Z,0.5111
2023-04-26T12:50:36.502Z,0.5109
2023-04-26T12:51:39.486Z,0.5113
2023-04-26T12:52:42.435Z,0.5051
2023-04-26T12:53:45.388Z,0.5020
2023-04-26T12:54:48.409Z,0.4956
2023-04-26T12:55:51.332Z,0.4946
2023-04-26T12:56:54.286Z,0.4872
2023-04-26T12:57:57.754Z,0.4905
2023-04-26T12:59:00.204Z,0.5050
2023-04-26T13:00:03.141Z,0.5134
2023-04-26T13:01:06.137Z,0.5209
2023-04-26T13:02:09.093Z,0.5142
2023-04-26T13:03:12.150Z,0.5131
2023-04-26T13:04:15.213Z,0.5132
2023-04-26T13:05:17.928Z,0.5138
2023-04-26T13:06:20.891Z,0.5140